Time;durP1;ratioP1;P1;durP2;ratioP2;P2;SDS_P1;SDS_P2;PMS_P1;PMS_P2;Temp;Humidity;BMP_temperature;BMP_pressure;BME280_temperature;BME280_humidity;BME280_pressure;Samples;Min_cycle;Max_cycle;Signal;HPM_P1;HPM_P2
2021/07/16 00:01:56;;;;;;;5.32;3.10;;;18.30;99.90;;;;;;5014930;28;20491;-72
2021/07/16 00:04:22;;;;;;;3.10;2.03;;;18.40;99.90;;;;;;5014475;28;20030;-72
2021/07/16 00:06:48;;;;;;;4.60;2.10;;;18.40;99.90;;;;;;5014627;28;20030;-72
2021/07/16 00:09:14;;;;;;;4.43;2.60;;;18.30;99.90;;;;;;5014591;28;20117;-72
2021/07/16 00:11:40;;;;;;;4.60;2.67;;;18.20;99.90;;;;;;4997078;28;20038;-73
2021/07/16 00:14:06;;;;;;;4.63;2.70;;;18.20;99.90;;;;;;5014572;28;20187;-73
2021/07/16 00:16:34;;;;;;;6.78;2.63;;;18.30;99.90;;;;;;5014216;28;20515;-72
2021/07/16 00:19:00;;;;;;;15.18;4.10;;;18.40;99.90;;;;;;5014352;28;20099;-72
2021/07/16 00:21:26;;;;;;;5.72;3.35;;;18.20;99.90;;;;;;5014070;28;20029;-72
2021/07/16 00:23:52;;;;;;;4.05;2.70;;;18.10;99.90;;;;;;5014180;28;20037;-72
2021/07/16 00:26:18;;;;;;;5.50;2.55;;;18.10;99.90;;;;;;5014081;28;20050;-71
2021/07/16 00:28:45;;;;;;;5.15;2.90;;;18.00;99.90;;;;;;5014309;28;20030;-72
2021/07/16 00:31:11;;;;;;;5.63;2.67;;;18.00;99.90;;;;;;5013001;28;20038;-72
2021/07/16 00:33:37;;;;;;;4.82;2.40;;;18.00;99.90;;;;;;5013803;28;20399;-72
2021/07/16 00:36:04;;;;;;;4.20;2.53;;;18.10;99.90;;;;;;5014253;28;20041;-72
2021/07/16 00:38:30;;;;;;;5.82;2.70;;;18.00;99.90;;;;;;5012908;28;20100;-72
2021/07/16 00:40:56;;;;;;;5.22;2.70;;;18.00;99.90;;;;;;5013961;28;20088;-72
2021/07/16 00:43:23;;;;;;;5.20;2.92;;;18.00;99.90;;;;;;5011411;28;20056;-73
2021/07/16 00:45:49;;;;;;;4.70;2.90;;;17.90;99.90;;;;;;5013800;28;20117;-73
2021/07/16 00:48:15;;;;;;;6.85;3.00;;;17.90;99.90;;;;;;5013889;28;20100;-73
2021/07/16 00:50:42;;;;;;;6.13;3.20;;;17.80;99.90;;;;;;5013996;28;20026;-73
2021/07/16 00:53:09;;;;;;;7.63;3.30;;;17.80;99.90;;;;;;5013704;28;20044;-73
2021/07/16 00:55:36;;;;;;;5.95;3.20;;;17.70;99.90;;;;;;5013735;28;20026;-73
2021/07/16 00:58:04;;;;;;;4.90;3.20;;;17.70;99.90;;;;;;5013650;28;20095;-72
2021/07/16 01:00:30;;;;;;;4.35;2.80;;;17.60;99.90;;;;;;5012060;28;20498;-73
2021/07/16 01:02:56;;;;;;;4.45;3.05;;;17.50;99.90;;;;;;5013482;28;20510;-72
2021/07/16 01:05:23;;;;;;;9.00;3.95;;;17.40;99.90;;;;;;5013369;28;20030;-73
2021/07/16 01:07:51;;;;;;;5.10;3.38;;;17.30;99.90;;;;;;5013543;28;20113;-73
2021/07/16 01:10:20;;;;;;;4.07;3.35;;;17.30;99.90;;;;;;5012298;28;20042;-72
2021/07/16 01:12:51;;;;;;;6.78;3.47;;;17.40;99.90;;;;;;5012086;28;20529;-72
2021/07/16 01:15:20;;;;;;;5.85;3.03;;;17.50;99.90;;;;;;5013141;28;20088;-73
2021/07/16 01:17:46;;;;;;;5.75;3.47;;;17.40;99.90;;;;;;5013164;28;20030;-72
2021/07/16 01:20:22;;;;;;;8.32;3.33;;;17.40;99.90;;;;;;5013746;28;20038;-73
2021/07/16 01:22:49;;;;;;;5.43;3.20;;;17.30;99.90;;;;;;5013412;28;20356;-73
2021/07/16 01:25:21;;;;;;;5.70;2.88;;;17.30;99.90;;;;;;5013167;28;20041;-73
2021/07/16 01:27:52;;;;;;;5.25;3.42;;;17.30;99.90;;;;;;5011796;28;20038;-72
2021/07/16 01:30:22;;;;;;;4.57;3.33;;;17.30;99.90;;;;;;5011684;28;20068;-73
2021/07/16 01:32:49;;;;;;;4.43;3.13;;;17.40;99.90;;;;;;5013039;28;20438;-72
2021/07/16 01:35:17;;;;;;;5.68;4.00;;;17.40;99.90;;;;;;5013006;28;20033;-73
2021/07/16 01:37:44;;;;;;;5.28;3.35;;;17.00;99.90;;;;;;5011556;28;20038;-73
2021/07/16 01:40:23;;;;;;;8.05;3.65;;;17.00;99.90;;;;;;5011864;28;20046;-72
2021/07/16 01:42:54;;;;;;;4.32;3.15;;;16.90;99.90;;;;;;5011634;28;20474;-72
2021/07/16 01:45:39;;;;;;;6.20;3.78;;;17.10;99.90;;;;;;5012723;28;20390;-73
2021/07/16 01:48:12;;;;;;;5.47;3.20;;;17.10;99.90;;;;;;5011374;28;20052;-73
2021/07/16 01:50:43;;;;;;;5.03;3.53;;;17.20;99.90;;;;;;5011716;28;20033;-73
2021/07/16 01:53:11;;;;;;;5.43;3.38;;;17.30;99.90;;;;;;5011563;28;20376;-72
2021/07/16 01:55:38;;;;;;;6.38;4.00;;;17.30;99.90;;;;;;5011004;28;20038;-73
2021/07/16 01:58:08;;;;;;;5.07;3.08;;;17.10;99.90;;;;;;5012514;28;20479;-73
2021/07/16 02:00:40;;;;;;;5.05;3.72;;;17.00;99.90;;;;;;5011387;28;20041;-72
2021/07/16 02:03:10;;;;;;;5.43;3.78;;;17.10;99.90;;;;;;5011418;28;20042;-72
2021/07/16 02:05:41;;;;;;;7.15;4.43;;;17.20;99.90;;;;;;5011391;28;20037;-72
2021/07/16 02:08:21;;;;;;;5.25;3.70;;;17.30;99.90;;;;;;5012598;28;20099;-72
2021/07/16 02:10:54;;;;;;;4.68;3.50;;;17.40;99.90;;;;;;5011139;28;20034;-73
2021/07/16 02:13:21;;;;;;;4.32;3.45;;;17.40;99.90;;;;;;5011025;28;20073;-73
2021/07/16 02:15:50;;;;;;;5.60;3.83;;;17.40;99.90;;;;;;5011248;28;20038;-73
2021/07/16 02:18:18;;;;;;;6.78;4.65;;;17.40;99.90;;;;;;5011050;28;20398;-72
2021/07/16 02:20:44;;;;;;;6.40;3.75;;;17.50;99.90;;;;;;5011010;28;20061;-72
2021/07/16 02:23:14;;;;;;;6.60;4.32;;;17.40;99.90;;;;;;5011222;28;20119;-72
2021/07/16 02:25:40;;;;;;;6.43;3.87;;;17.40;99.90;;;;;;5012533;28;20030;-72
2021/07/16 02:28:29;;;;;;;5.32;3.85;;;17.40;99.90;;;;;;5011119;28;20030;-72
2021/07/16 02:30:56;;;;;;;6.55;3.97;;;17.40;99.90;;;;;;5012515;28;20034;-73
2021/07/16 02:33:23;;;;;;;6.30;4.63;;;17.30;99.90;;;;;;5012330;28;20080;-72
2021/07/16 02:35:49;;;;;;;6.40;4.00;;;17.30;99.90;;;;;;5010926;28;20030;-71
2021/07/16 02:38:16;;;;;;;7.07;3.90;;;17.30;99.90;;;;;;5012355;28;20038;-71
2021/07/16 02:40:43;;;;;;;5.00;3.85;;;17.10;99.90;;;;;;5010965;28;20391;-72
2021/07/16 02:43:09;;;;;;;8.02;4.18;;;17.10;99.90;;;;;;5010993;28;20112;-72
2021/07/16 02:45:36;;;;;;;9.20;3.95;;;17.00;99.90;;;;;;5011051;28;20041;-73
2021/07/16 02:48:03;;;;;;;5.95;3.90;;;17.00;99.90;;;;;;5012351;28;20435;-73
2021/07/16 02:50:33;;;;;;;6.82;4.05;;;17.10;99.90;;;;;;5010775;28;20100;-73
2021/07/16 02:53:00;;;;;;;11.07;4.20;;;16.90;99.90;;;;;;5010975;28;20041;-72
2021/07/16 02:55:26;;;;;;;4.78;3.47;;;16.80;99.90;;;;;;5010966;28;20026;-73
2021/07/16 02:57:52;;;;;;;5.13;3.83;;;16.80;99.90;;;;;;5011986;28;20038;-73
2021/07/16 03:00:24;;;;;;;7.10;3.70;;;16.90;99.90;;;;;;5012148;28;20033;-72
2021/07/16 03:02:51;;;;;;;5.18;3.55;;;16.80;99.90;;;;;;5012322;28;20030;-72
2021/07/16 03:05:22;;;;;;;5.22;3.42;;;16.70;99.90;;;;;;5011816;28;20030;-73
2021/07/16 03:07:49;;;;;;;4.50;3.40;;;16.60;99.90;;;;;;5015660;28;20053;-72
2021/07/16 03:10:22;;;;;;;4.93;3.70;;;16.60;99.90;;;;;;5014748;28;20037;-73
2021/07/16 03:12:50;;;;;;;6.40;3.72;;;16.60;99.90;;;;;;5015480;28;20053;-73
2021/07/16 03:15:19;;;;;;;6.93;3.72;;;16.60;99.90;;;;;;5030677;28;20030;-73
2021/07/16 03:17:46;;;;;;;4.43;3.60;;;16.50;99.90;;;;;;5015503;28;20034;-73
2021/07/16 03:20:17;;;;;;;8.95;3.72;;;16.60;99.90;;;;;;5015229;28;20383;-73
2021/07/16 03:22:43;;;;;;;6.30;3.40;;;16.60;99.90;;;;;;5015265;28;20030;-72
2021/07/16 03:25:13;;;;;;;5.95;3.20;;;16.60;99.90;;;;;;5014152;28;20784;-73
2021/07/16 03:27:39;;;;;;;5.72;3.47;;;16.70;99.90;;;;;;5013988;28;20038;-72
2021/07/16 03:30:10;;;;;;;7.63;3.70;;;16.60;99.90;;;;;;5014056;28;20049;-72
2021/07/16 03:32:37;;;;;;;6.90;3.20;;;16.50;99.90;;;;;;5014171;28;20041;-72
2021/07/16 03:35:05;;;;;;;6.57;3.20;;;16.50;99.90;;;;;;5013920;28;20062;-72
2021/07/16 03:37:31;;;;;;;4.75;2.97;;;16.50;99.90;;;;;;4997572;28;20041;-73
2021/07/16 03:39:57;;;;;;;4.40;3.42;;;16.50;99.90;;;;;;5015292;28;20037;-72
2021/07/16 03:42:22;;;;;;;6.50;3.47;;;16.40;99.90;;;;;;5014873;28;20033;-73
2021/07/16 03:44:48;;;;;;;4.90;3.05;;;16.30;99.90;;;;;;5015201;28;20053;-71
2021/07/16 03:47:15;;;;;;;6.25;3.10;;;16.30;99.90;;;;;;5014889;28;20030;-72
2021/07/16 03:49:43;;;;;;;4.88;3.47;;;16.30;99.90;;;;;;5013690;28;20065;-73
2021/07/16 03:52:09;;;;;;;6.13;3.22;;;16.20;99.90;;;;;;5013561;28;20128;-73
2021/07/16 03:54:37;;;;;;;10.95;3.22;;;16.30;99.90;;;;;;5013730;28;20418;-71
2021/07/16 03:57:07;;;;;;;7.15;2.80;;;16.30;99.90;;;;;;5014953;28;20486;-72
2021/07/16 03:59:33;;;;;;;8.07;3.58;;;16.30;99.90;;;;;;5014625;28;20501;-72
2021/07/16 04:02:01;;;;;;;4.47;3.45;;;16.10;99.90;;;;;;5013318;28;20105;-72
2021/07/16 04:04:27;;;;;;;4.43;3.53;;;15.90;99.90;;;;;;5013592;28;20041;-72
2021/07/16 04:06:54;;;;;;;4.68;3.45;;;16.00;99.90;;;;;;5014563;28;20103;-72
2021/07/16 04:09:27;;;;;;;6.00;3.30;;;15.90;99.90;;;;;;5014451;28;20041;-73
2021/07/16 04:12:14;;;;;;;4.38;2.90;;;15.80;99.90;;;;;;5014544;28;20046;-72
2021/07/16 04:14:45;;;;;;;6.03;3.22;;;15.70;99.90;;;;;;5014199;28;20065;-73
2021/07/16 04:17:23;;;;;;;9.15;3.72;;;15.90;99.90;;;;;;5014038;28;20065;-73
2021/07/16 04:19:50;;;;;;;7.05;3.67;;;15.90;99.90;;;;;;5013294;28;20049;-72
2021/07/16 04:22:17;;;;;;;6.75;3.47;;;16.00;99.90;;;;;;5014228;28;20030;-72
2021/07/16 04:24:45;;;;;;;6.25;3.85;;;16.10;99.90;;;;;;5014328;28;20042;-72
2021/07/16 04:27:13;;;;;;;8.23;3.60;;;16.20;99.90;;;;;;4996767;28;20037;-71
2021/07/16 04:29:41;;;;;;;7.25;3.40;;;16.40;99.90;;;;;;5013855;28;20544;-72
2021/07/16 04:32:08;;;;;;;5.40;3.67;;;16.50;99.90;;;;;;5014078;28;20037;-71
2021/07/16 04:34:37;;;;;;;6.75;3.38;;;16.50;99.90;;;;;;5012720;28;20467;-72
2021/07/16 04:37:05;;;;;;;5.43;3.80;;;16.40;99.90;;;;;;5012645;28;20036;-71
2021/07/16 04:39:32;;;;;;;6.30;3.70;;;16.30;99.90;;;;;;5012693;28;20041;-73
2021/07/16 04:41:58;;;;;;;6.63;4.13;;;16.20;99.90;;;;;;5012384;28;20032;-73
2021/07/16 04:44:24;;;;;;;5.65;4.53;;;16.10;99.90;;;;;;5012929;28;20056;-73
2021/07/16 04:46:50;;;;;;;11.57;7.80;;;16.10;99.90;;;;;;5013698;28;20026;-72
2021/07/16 04:49:16;;;;;;;30.17;16.60;;;16.30;99.90;;;;;;5012492;28;20037;-73
2021/07/16 04:51:42;;;;;;;14.32;10.02;;;16.40;99.90;;;;;;5012731;28;20034;-72
2021/07/16 04:54:08;;;;;;;17.17;9.30;;;16.50;99.90;;;;;;5013752;28;20048;-72
2021/07/16 04:56:34;;;;;;;6.15;4.07;;;16.70;99.90;;;;;;5012471;28;20042;-72
2021/07/16 04:59:02;;;;;;;5.07;3.70;;;16.80;99.90;;;;;;5012337;28;20034;-72
2021/07/16 05:01:28;;;;;;;13.00;8.27;;;16.80;99.90;;;;;;5013464;28;20033;-72
2021/07/16 05:03:55;;;;;;;6.80;4.78;;;16.90;99.90;;;;;;5013576;28;20030;-72
2021/07/16 05:06:22;;;;;;;9.15;4.13;;;16.90;99.90;;;;;;5012257;28;20034;-72
2021/07/16 05:08:49;;;;;;;9.05;4.78;;;16.80;99.90;;;;;;5012257;28;20156;-71
2021/07/16 05:11:16;;;;;;;7.40;4.32;;;16.80;99.90;;;;;;5013360;28;20033;-72
2021/07/16 05:13:42;;;;;;;8.05;4.10;;;17.00;99.90;;;;;;5011958;28;20059;-72
2021/07/16 05:16:12;;;;;;;7.25;4.95;;;17.10;99.90;;;;;;5012315;28;20026;-72
2021/07/16 05:18:39;;;;;;;9.30;5.07;;;17.30;99.90;;;;;;5012868;28;20060;-72
2021/07/16 05:21:08;;;;;;;5.13;4.00;;;17.50;99.90;;;;;;5013410;28;20487;-72
2021/07/16 05:23:34;;;;;;;10.52;5.03;;;17.60;99.90;;;;;;5011987;28;20041;-72
2021/07/16 05:26:00;;;;;;;6.55;3.85;;;17.70;99.90;;;;;;5011760;28;20038;-72
2021/07/16 05:28:27;;;;;;;16.05;6.80;;;17.70;99.90;;;;;;5012774;28;20021;-72
2021/07/16 05:30:53;;;;;;;6.28;4.13;;;17.80;99.90;;;;;;5012888;28;20053;-72
2021/07/16 05:33:20;;;;;;;8.85;4.20;;;17.80;99.90;;;;;;5011564;28;20040;-72
2021/07/16 05:35:45;;;;;;;6.22;4.13;;;17.90;99.90;;;;;;5011765;28;20029;-72
2021/07/16 05:38:12;;;;;;;6.25;4.20;;;18.00;99.90;;;;;;5012736;28;20107;-72
2021/07/16 05:40:39;;;;;;;7.25;4.93;;;18.10;99.90;;;;;;5011377;28;20121;-73
2021/07/16 05:43:09;;;;;;;7.70;5.20;;;18.00;99.90;;;;;;5012734;28;20057;-72
2021/07/16 05:45:38;;;;;;;6.32;4.40;;;18.20;99.90;;;;;;5012923;28;20030;-73
2021/07/16 05:48:05;;;;;;;7.95;5.53;;;18.20;99.90;;;;;;5012621;28;20045;-72
2021/07/16 05:50:32;;;;;;;7.30;5.75;;;18.20;99.90;;;;;;5012836;28;20068;-73
2021/07/16 05:52:58;;;;;;;8.52;5.85;;;18.20;99.90;;;;;;5011558;28;20526;-73
2021/07/16 05:55:24;;;;;;;10.90;7.18;;;18.30;99.90;;;;;;5012660;28;20034;-72
2021/07/16 05:57:50;;;;;;;11.23;7.88;;;18.30;99.90;;;;;;5011154;28;20033;-72
2021/07/16 06:00:17;;;;;;;12.25;7.45;;;18.20;99.90;;;;;;5011253;28;20490;-72
2021/07/16 06:02:43;;;;;;;12.30;7.85;;;18.20;99.90;;;;;;5027690;28;20044;-73
2021/07/16 06:05:10;;;;;;;12.68;7.30;;;18.30;99.90;;;;;;5012746;28;20026;-73
2021/07/16 06:07:36;;;;;;;12.93;8.10;;;18.30;99.90;;;;;;5011095;28;20030;-73
2021/07/16 06:10:04;;;;;;;13.63;7.63;;;18.30;99.90;;;;;;5011402;28;20092;-73
2021/07/16 06:12:29;;;;;;;14.25;7.65;;;18.40;99.90;;;;;;5010720;28;20409;-73
2021/07/16 06:14:56;;;;;;;13.70;7.90;;;18.50;99.90;;;;;;5012174;28;20507;-73
2021/07/16 06:17:27;;;;;;;10.55;6.82;;;18.40;99.90;;;;;;5012550;28;20026;-73
2021/07/16 06:19:53;;;;;;;9.55;6.78;;;18.70;99.90;;;;;;5011234;28;20030;-72
2021/07/16 06:22:19;;;;;;;10.15;7.18;;;18.70;99.90;;;;;;5012343;28;20463;-72
2021/07/16 06:24:45;;;;;;;11.07;6.97;;;18.80;99.90;;;;;;5010641;28;20402;-72
2021/07/16 06:27:11;;;;;;;11.20;5.90;;;18.90;99.90;;;;;;5012221;28;20034;-72
2021/07/16 06:29:37;;;;;;;9.27;6.07;;;19.00;99.90;;;;;;5010897;28;20491;-72
2021/07/16 06:32:04;;;;;;;9.73;5.70;;;19.10;99.90;;;;;;5011099;28;20034;-72
2021/07/16 06:34:30;;;;;;;8.63;5.03;;;19.30;99.90;;;;;;5012218;28;20431;-71
2021/07/16 06:36:57;;;;;;;6.57;4.25;;;19.20;99.90;;;;;;5012020;28;20540;-72
2021/07/16 06:39:22;;;;;;;7.70;5.07;;;19.40;99.90;;;;;;5012132;28;20041;-73
2021/07/16 06:41:48;;;;;;;5.43;3.85;;;19.50;99.90;;;;;;5014340;28;20033;-72
2021/07/16 06:44:16;;;;;;;6.55;3.25;;;19.60;99.90;;;;;;5016411;28;20030;-72
2021/07/16 06:46:42;;;;;;;8.07;3.80;;;19.80;99.90;;;;;;5014605;28;20026;-72
2021/07/16 06:49:08;;;;;;;7.57;3.30;;;19.70;99.90;;;;;;5015113;28;20038;-72
2021/07/16 06:51:34;;;;;;;4.28;2.95;;;19.80;99.90;;;;;;5014842;28;20045;-72
2021/07/16 06:54:01;;;;;;;5.18;2.72;;;19.90;99.90;;;;;;5016113;28;20041;-72
2021/07/16 06:56:26;;;;;;;7.75;3.30;;;19.90;99.90;;;;;;5014692;28;20029;-72
2021/07/16 06:58:53;;;;;;;4.60;2.65;;;19.70;99.90;;;;;;5015565;28;20128;-72
2021/07/16 07:01:20;;;;;;;4.95;3.10;;;19.90;99.90;;;;;;5014389;28;20037;-72
2021/07/16 07:03:46;;;;;;;5.82;2.80;;;20.00;99.90;;;;;;4998468;28;20040;-72
2021/07/16 07:06:12;;;;;;;6.00;2.47;;;20.20;99.90;;;;;;5015788;28;20029;-72
2021/07/16 07:08:38;;;;;;;5.40;2.40;;;20.20;99.90;;;;;;5015318;28;20084;-72
2021/07/16 07:11:06;;;;;;;3.45;2.22;;;20.30;99.90;;;;;;5014357;28;20080;-72
2021/07/16 07:13:32;;;;;;;4.28;2.10;;;20.50;99.90;;;;;;5015316;28;20499;-73
2021/07/16 07:15:59;;;;;;;3.05;1.88;;;20.60;99.90;;;;;;5015425;28;20026;-73
2021/07/16 07:18:25;;;;;;;3.78;2.08;;;20.70;99.90;;;;;;5014098;28;20041;-73
2021/07/16 07:20:51;;;;;;;4.20;2.22;;;20.90;99.90;;;;;;5015436;28;20030;-71
2021/07/16 07:23:18;;;;;;;4.10;2.53;;;20.80;99.90;;;;;;5015259;28;20084;-72
2021/07/16 07:25:45;;;;;;;4.07;2.17;;;20.90;99.90;;;;;;5015236;28;20030;-73
2021/07/16 07:28:10;;;;;;;3.78;2.20;;;20.90;99.90;;;;;;5015094;28;20510;-73
2021/07/16 07:30:37;;;;;;;6.07;2.72;;;20.90;99.90;;;;;;5015597;28;20081;-73
2021/07/16 07:33:04;;;;;;;6.43;2.00;;;21.10;99.90;;;;;;5015230;28;20026;-73
2021/07/16 07:35:32;;;;;;;3.67;2.58;;;21.20;99.90;;;;;;5015066;28;20493;-72
2021/07/16 07:38:00;;;;;;;5.05;3.05;;;21.20;99.90;;;;;;5014877;28;20033;-72
2021/07/16 07:40:26;;;;;;;3.88;2.50;;;21.30;99.90;;;;;;5014076;28;20037;-72
2021/07/16 07:42:52;;;;;;;4.43;2.05;;;21.40;99.90;;;;;;5015018;28;20359;-72
2021/07/16 07:45:18;;;;;;;4.22;2.58;;;21.40;99.90;;;;;;5013916;28;20524;-73
2021/07/16 07:47:44;;;;;;;4.07;2.40;;;21.50;99.90;;;;;;5013591;28;20022;-72
2021/07/16 07:50:14;;;;;;;4.38;2.67;;;21.50;99.90;;;;;;5014894;28;20034;-71
2021/07/16 07:52:40;;;;;;;6.07;2.40;;;21.50;99.90;;;;;;5012918;28;20167;-73
2021/07/16 07:55:08;;;;;;;4.70;2.40;;;21.50;99.90;;;;;;5014657;28;20099;-73
2021/07/16 07:57:34;;;;;;;3.60;2.33;;;21.60;99.90;;;;;;5013476;28;20044;-73
2021/07/16 07:59:59;;;;;;;4.30;2.80;;;21.60;99.90;;;;;;5014709;28;20026;-73
2021/07/16 08:02:25;;;;;;;5.47;2.28;;;21.80;99.90;;;;;;5013704;28;20462;-73
2021/07/16 08:04:51;;;;;;;3.28;2.28;;;21.90;99.90;;;;;;5013606;28;20037;-73
2021/07/16 08:07:17;;;;;;;3.83;2.25;;;22.20;99.90;;;;;;5013295;28;20034;-72
2021/07/16 08:09:42;;;;;;;5.70;2.60;;;22.30;99.90;;;;;;5013611;28;20422;-73
2021/07/16 08:12:09;;;;;;;6.97;3.38;;;22.50;99.90;;;;;;5014379;28;20085;-72
2021/07/16 08:14:35;;;;;;;5.55;2.65;;;22.60;99.90;;;;;;5013309;28;20036;-73
2021/07/16 08:17:01;;;;;;;5.28;3.00;;;22.70;99.90;;;;;;5013206;28;20030;-74
2021/07/16 08:19:27;;;;;;;4.32;2.65;;;22.70;99.90;;;;;;5014412;28;20580;-73
2021/07/16 08:21:54;;;;;;;4.72;2.88;;;22.80;99.90;;;;;;5014057;28;20038;-73
2021/07/16 08:24:22;;;;;;;5.70;2.50;;;22.80;99.90;;;;;;5012948;28;20057;-73
2021/07/16 08:26:48;;;;;;;3.72;2.50;;;22.80;99.90;;;;;;5014055;28;20038;-72
2021/07/16 08:29:15;;;;;;;3.97;2.72;;;22.70;99.90;;;;;;5013974;28;20026;-73
2021/07/16 08:31:43;;;;;;;8.73;3.63;;;22.60;99.90;;;;;;5012392;28;20530;-73
2021/07/16 08:34:11;;;;;;;3.90;2.28;;;22.40;99.90;;;;;;5012926;28;20426;-72
2021/07/16 08:36:37;;;;;;;4.00;3.00;;;22.50;99.90;;;;;;5014280;28;20080;-72
2021/07/16 08:39:06;;;;;;;11.45;4.40;;;22.60;99.90;;;;;;5013822;28;20065;-73
2021/07/16 08:41:33;;;;;;;5.18;3.28;;;22.70;99.90;;;;;;5012828;28;20087;-72
2021/07/16 08:43:59;;;;;;;6.78;3.63;;;22.80;99.90;;;;;;5013928;28;20030;-72
2021/07/16 08:46:25;;;;;;;5.30;3.28;;;22.70;99.90;;;;;;5012725;28;20031;-72
2021/07/16 08:48:51;;;;;;;4.85;3.00;;;22.70;99.90;;;;;;5013631;28;20521;-72
2021/07/16 08:51:23;;;;;;;6.40;3.40;;;22.80;99.90;;;;;;5012520;28;20030;-72
2021/07/16 08:53:54;;;;;;;3.95;2.67;;;22.90;99.90;;;;;;5012594;28;20030;-72
2021/07/16 08:56:22;;;;;;;6.22;3.03;;;22.80;99.90;;;;;;5012771;28;20589;-72
2021/07/16 08:58:48;;;;;;;5.35;2.80;;;23.00;99.90;;;;;;5013451;28;20037;-73
2021/07/16 09:01:14;;;;;;;7.15;2.78;;;23.20;99.90;;;;;;5013476;28;20026;-73
2021/07/16 09:04:03;;;;;;;4.72;2.80;;;23.20;99.90;;;;;;5011287;28;20117;-73
2021/07/16 09:06:46;;;;;;;6.68;3.30;;;23.30;99.90;;;;;;5012505;28;20026;-73
2021/07/16 09:09:18;;;;;;;7.22;2.92;;;23.40;99.90;;;;;;5013406;28;20030;-73
2021/07/16 09:11:52;;;;;;;6.47;3.28;;;23.40;99.90;;;;;;4996066;28;20403;-73
2021/07/16 09:14:30;;;;;;;8.85;3.95;;;23.40;99.90;;;;;;5012390;28;20126;-73
2021/07/16 09:17:14;;;;;;;7.40;4.13;;;23.30;99.90;;;;;;5013121;28;20034;-73
2021/07/16 09:19:44;;;;;;;8.70;3.65;;;23.20;99.90;;;;;;5012069;28;20504;-73
2021/07/16 09:22:25;;;;;;;6.15;3.08;;;23.40;99.90;;;;;;5012959;28;20556;-73
2021/07/16 09:25:00;;;;;;;6.00;3.70;;;23.70;99.90;;;;;;5012826;28;20487;-73
2021/07/16 09:27:43;;;;;;;4.80;3.55;;;23.90;99.90;;;;;;5013087;28;20038;-73
2021/07/16 09:30:26;;;;;;;7.15;4.18;;;23.90;99.90;;;;;;5012941;28;20057;-73
2021/07/16 09:32:56;;;;;;;10.00;4.47;;;23.90;99.90;;;;;;5011529;28;20064;-73
2021/07/16 09:35:38;;;;;;;9.27;4.43;;;23.80;99.90;;;;;;5013133;28;20038;-73
2021/07/16 09:38:07;;;;;;;7.00;3.83;;;23.80;99.90;;;;;;5011767;28;20038;-73
2021/07/16 09:40:38;;;;;;;10.18;4.78;;;23.80;99.90;;;;;;5013232;28;20037;-73
2021/07/16 09:43:18;;;;;;;8.75;4.60;;;23.90;99.90;;;;;;5011592;28;20049;-73
2021/07/16 09:46:03;;;;;;;6.80;4.32;;;23.90;99.90;;;;;;5011698;28;20038;-74
2021/07/16 09:48:37;;;;;;;6.63;4.10;;;23.90;99.90;;;;;;5011591;28;20478;-74
2021/07/16 09:51:25;;;;;;;6.00;3.88;;;24.00;99.90;;;;;;5011480;28;20383;-73
2021/07/16 09:54:01;;;;;;;8.00;4.22;;;24.00;99.90;;;;;;5011431;28;20034;-73
2021/07/16 09:56:34;;;;;;;6.28;4.22;;;24.10;99.90;;;;;;5012637;28;20037;-73
2021/07/16 09:59:13;;;;;;;11.65;5.07;;;24.20;99.90;;;;;;5012435;28;20052;-72
2021/07/16 10:01:50;;;;;;;7.78;4.82;;;24.50;99.90;;;;;;5011453;28;20116;-72
2021/07/16 10:04:21;;;;;;;6.35;4.22;;;24.60;99.90;;;;;;5011643;28;20121;-72
2021/07/16 10:06:49;;;;;;;8.65;4.65;;;24.80;99.90;;;;;;4995562;28;20152;-73
2021/07/16 10:09:20;;;;;;;7.90;3.45;;;24.60;99.90;;;;;;5012412;28;20120;-74
2021/07/16 10:11:48;;;;;;;8.70;4.03;;;24.70;99.90;;;;;;5010944;28;20053;-73
2021/07/16 10:14:15;;;;;;;7.60;3.65;;;24.90;99.90;;;;;;5011090;28;20116;-72
2021/07/16 10:16:46;;;;;;;5.43;3.38;;;25.10;99.90;;;;;;5010757;28;20522;-73
2021/07/16 10:19:16;;;;;;;5.18;3.65;;;25.40;99.90;;;;;;5011023;28;20103;-72
2021/07/16 10:21:44;;;;;;;6.30;3.33;;;25.40;99.90;;;;;;5011108;28;20372;-73
2021/07/16 10:24:13;;;;;;;4.88;3.05;;;25.50;99.90;;;;;;5011053;28;20296;-73
2021/07/16 10:26:40;;;;;;;6.20;3.05;;;25.50;99.90;;;;;;5010909;28;20076;-72
2021/07/16 10:29:39;;;;;;;6.50;3.40;;;25.50;99.90;;;;;;5010906;28;20073;-73
2021/07/16 10:32:06;;;;;;;6.03;3.65;;;25.40;99.90;;;;;;4994774;28;20588;-73
2021/07/16 10:34:35;;;;;;;5.95;3.92;;;25.50;99.90;;;;;;5010861;28;20045;-73
2021/07/16 10:37:08;;;;;;;5.93;2.90;;;25.80;99.90;;;;;;5012038;28;20026;-73
2021/07/16 10:39:55;;;;;;;5.55;3.30;;;26.00;99.90;;;;;;5011112;28;20092;-74
2021/07/16 10:42:29;;;;;;;4.35;3.08;;;26.00;99.90;;;;;;5012136;28;20371;-73
2021/07/16 10:45:00;;;;;;;6.60;3.30;;;26.30;99.90;;;;;;5012112;28;20030;-73
2021/07/16 10:47:47;;;;;;;4.97;3.40;;;26.30;99.90;;;;;;5010745;28;20030;-73
2021/07/16 10:50:26;;;;;;;4.25;2.97;;;26.20;99.90;;;;;;5010916;28;20030;-73
2021/07/16 10:52:52;;;;;;;5.55;2.97;;;26.50;99.90;;;;;;5012136;28;20041;-73
2021/07/16 10:55:36;;;;;;;6.05;3.10;;;26.20;99.90;;;;;;5010818;28;20483;-73
2021/07/16 10:58:23;;;;;;;3.90;2.70;;;26.20;99.90;;;;;;5011746;28;20042;-73
2021/07/16 11:00:58;;;;;;;5.53;2.78;;;26.50;99.90;;;;;;5012254;28;20034;-73
2021/07/16 11:03:44;;;;;;;5.25;2.90;;;26.30;99.90;;;;;;5011867;28;20570;-74
2021/07/16 11:06:15;;;;;;;4.88;2.50;;;26.30;99.90;;;;;;5010901;28;20030;-72
2021/07/16 11:08:41;;;;;;;;;;;26.40;99.90;;;;;;5012582;28;20030;-72
2021/07/16 11:11:17;;;;;;;5.63;3.15;;;26.60;99.90;;;;;;5011581;28;19913;-73
2021/07/16 11:13:45;;;;;;;5.45;3.72;;;26.80;99.90;;;;;;5010409;28;20108;-72
2021/07/16 11:16:24;;;;;;;5.13;3.05;;;26.90;99.90;;;;;;5011825;28;20062;-73
2021/07/16 11:19:15;;;;;;;4.40;2.80;;;27.00;99.90;;;;;;5026985;28;20038;-73
2021/07/16 11:21:43;;;;;;;4.07;2.60;;;26.70;99.90;;;;;;5010669;28;20061;-73
2021/07/16 11:24:18;;;;;;;4.00;2.80;;;27.20;99.90;;;;;;5011625;28;20034;-73
2021/07/16 11:26:56;;;;;;;6.93;3.20;;;27.30;99.90;;;;;;5011807;28;20073;-72
2021/07/16 11:29:24;;;;;;;3.72;2.33;;;27.50;99.90;;;;;;5015079;28;20037;-73
2021/07/16 11:32:12;;;;;;;3.78;2.90;;;27.50;99.20;;;;;;5013813;28;20490;-73
2021/07/16 11:34:46;;;;;;;4.90;3.42;;;27.50;99.70;;;;;;5015203;28;20041;-73
2021/07/16 11:37:35;;;;;;;9.43;3.63;;;27.20;99.80;;;;;;5013593;28;20034;-73
2021/07/16 11:40:11;;;;;;;6.63;3.13;;;27.50;99.90;;;;;;5014861;28;20038;-73
2021/07/16 11:42:58;;;;;;;4.15;3.05;;;27.90;99.90;;;;;;5030606;28;20045;-73
2021/07/16 11:45:37;;;;;;;3.53;2.65;;;27.70;99.10;;;;;;5014001;28;20065;-72
2021/07/16 11:48:17;;;;;;;2.60;1.95;;;27.60;97.30;;;;;;5013673;28;20059;-73
2021/07/16 11:50:46;;;;;;;5.15;2.95;;;28.00;97.10;;;;;;5015221;28;20041;-73
2021/07/16 11:53:14;;;;;;;5.05;2.65;;;27.50;98.10;;;;;;5014613;28;20025;-73
2021/07/16 11:55:41;;;;;;;5.90;2.50;;;27.40;98.20;;;;;;5014800;28;20609;-73
2021/07/16 11:58:07;;;;;;;3.08;2.33;;;27.10;99.00;;;;;;4996980;28;20041;-73
2021/07/16 12:00:44;;;;;;;3.78;2.50;;;27.50;98.60;;;;;;5014684;28;20437;-73
2021/07/16 12:03:17;;;;;;;4.15;2.55;;;27.70;98.70;;;;;;5029522;28;20022;-73
2021/07/16 12:05:52;;;;;;;4.72;2.80;;;28.10;98.10;;;;;;5014798;28;20130;-73
2021/07/16 12:08:22;;;;;;;3.65;2.63;;;28.20;98.10;;;;;;5013387;28;20034;-73
2021/07/16 12:10:49;;;;;;;;;;;28.20;96.90;;;;;;5015223;28;20425;-73
2021/07/16 12:13:18;;;;;;;6.07;2.55;;;28.30;96.90;;;;;;5013023;28;19921;-73
2021/07/16 12:15:57;;;;;;;5.13;3.00;;;28.80;96.60;;;;;;5014398;28;20033;-73
2021/07/16 12:18:23;;;;;;;5.95;3.05;;;29.10;97.30;;;;;;5013062;28;20387;-73
2021/07/16 12:20:54;;;;;;;5.50;3.70;;;28.70;97.40;;;;;;5013246;28;20040;-74
2021/07/16 12:23:20;;;;;;;4.30;3.38;;;28.50;98.10;;;;;;5013190;28;20045;-74
2021/07/16 12:25:46;;;;;;;4.82;2.80;;;28.80;97.60;;;;;;4996811;28;20026;-73
2021/07/16 12:28:21;;;;;;;3.25;2.60;;;28.50;97.10;;;;;;5013060;28;20053;-73
2021/07/16 12:30:47;;;;;;;4.28;3.30;;;28.20;97.60;;;;;;5014157;28;20564;-73
2021/07/16 12:33:15;;;;;;;6.22;2.92;;;28.00;97.90;;;;;;5014207;28;20045;-73
2021/07/16 12:35:44;;;;;;;5.70;3.75;;;28.50;96.90;;;;;;5012935;28;20038;-73
2021/07/16 12:38:13;;;;;;;7.13;3.97;;;28.50;97.70;;;;;;5013454;28;20034;-72
2021/07/16 12:40:46;;;;;;;6.70;4.20;;;28.20;99.20;;;;;;5013975;28;20038;-73
2021/07/16 12:43:19;;;;;;;4.78;3.72;;;28.20;99.20;;;;;;5014006;28;20034;-73
2021/07/16 12:45:56;;;;;;;6.38;4.60;;;27.70;99.90;;;;;;5013784;28;20033;-73
2021/07/16 12:48:36;;;;;;;6.07;4.32;;;27.30;99.90;;;;;;4996091;28;20030;-72
2021/07/16 12:51:15;;;;;;;8.35;3.97;;;27.30;99.90;;;;;;5013643;28;20057;-73
2021/07/16 12:53:43;;;;;;;6.90;4.75;;;27.40;99.90;;;;;;5012732;28;20042;-73
2021/07/16 12:56:17;;;;;;;9.27;4.90;;;27.20;99.90;;;;;;5013714;28;20033;-73
2021/07/16 12:58:43;;;;;;;6.75;4.65;;;26.60;99.90;;;;;;5028824;28;20041;-73